Gravleeton, Alabama
Current Conditions -  °F | °C
As of 3:15 PM on Saturday 22 Nov 2014 (Local Time) from KJFX Reporting Station
Light Rain Light Rain  
Wind Chill: 66°   Ceiling: Unl
Heat Index: 66°   Visibility: 10mi
Dew Point: 50°   Wind: 3mph
Humidity: 56%   Direction: 150°SSE
Pressure: 30.17"   Gusts: NA
Location:  33.7805°N, 87.0449°W
Report Text: KJFX 222115Z AUTO 15003KT 10SM -RA SCT043 19/10 A3017 RMK A02 P-128
Loading
Personal Weather Stations






























Interactive Weather Map New forecast layout! Learn more

10-Day Weather Forecast

Advertisements
Track Severe Weather on mobile